Time,TemperatureF,DewpointF,PressureIn,WindDirection,WindDirectionDegrees,WindSpeedMPH,WindSpeedGustMPH,Humidity,HourlyPrecipIn,Conditions,Clouds,dailyrainin,SoftwareType,DateUTC
2013-03-09 00:01:00,51.1,43.5,29.68,NNW,338,1.8,8.5,75,0.00,,,0.00,WUHU216HW,2013-03-09 08:01:00,
2013-03-09 00:06:00,51.1,43.5,29.69,NW,315,1.8,8.5,75,0.00,,,0.00,WUHU216HW,2013-03-09 08:06:00,
2013-03-09 00:11:00,50.9,43.3,29.68,WSW,248,2.5,5.6,75,0.00,,,0.00,WUHU216HW,2013-03-09 08:11:00,
2013-03-09 00:16:00,50.9,43.3,29.68,WSW,248,1.3,5.1,75,0.00,,,0.00,WUHU216HW,2013-03-09 08:16:00,
2013-03-09 00:21:00,50.8,43.1,29.69,NW,315,3.4,5.4,75,0.00,,,0.00,WUHU216HW,2013-03-09 08:21:00,
2013-03-09 00:26:00,50.8,43.1,29.69,NW,315,3.6,5.4,75,0.00,,,0.00,WUHU216HW,2013-03-09 08:26:00,
2013-03-09 00:31:00,50.8,43.1,29.69,North,0,5.4,6.3,75,0.00,,,0.00,WUHU216HW,2013-03-09 08:31:00,
2013-03-09 00:36:00,50.8,43.1,29.69,NNW,338,1.8,6.3,75,0.00,,,0.00,WUHU216HW,2013-03-09 08:36:00,
2013-03-09 00:41:00,50.8,43.1,29.69,NNW,338,4.0,6.0,75,0.00,,,0.00,WUHU216HW,2013-03-09 08:41:00,
2013-03-09 00:46:00,50.8,43.1,29.70,NNW,338,2.5,6.0,75,0.00,,,0.00,WUHU216HW,2013-03-09 08:46:00,
2013-03-09 00:51:00,50.6,42.9,29.69,WNW,293,5.8,5.8,75,0.00,,,0.00,WUHU216HW,2013-03-09 08:51:00,
2013-03-09 00:56:00,50.4,42.4,29.69,NNW,338,1.1,5.8,74,0.00,,,0.00,WUHU216HW,2013-03-09 08:56:00,
2013-03-09 01:01:00,50.4,42.4,29.70,NW,315,2.0,4.0,74,0.00,,,0.00,WUHU216HW,2013-03-09 09:01:00,
2013-03-09 01:06:00,50.4,42.8,29.70,NW,315,0.0,4.0,75,0.00,,,0.00,WUHU216HW,2013-03-09 09:06:00,
2013-03-09 01:11:00,50.0,42.4,29.70,North,0,0.4,2.0,75,0.00,,,0.00,WUHU216HW,2013-03-09 09:11:00,
2013-03-09 01:16:00,49.7,42.0,29.70,NNE,23,0.2,1.6,75,0.00,,,0.00,WUHU216HW,2013-03-09 09:16:00,
2013-03-09 01:21:00,49.3,41.7,29.70,ESE,113,1.1,1.6,75,0.00,,,0.00,WUHU216HW,2013-03-09 09:21:00,
2013-03-09 01:26:00,49.3,41.7,29.70,ESE,113,0.4,1.6,75,0.00,,,0.00,WUHU216HW,2013-03-09 09:26:00,
2013-03-09 01:31:00,49.0,41.3,29.71,ENE,68,0.0,1.3,75,0.00,,,0.00,WUHU216HW,2013-03-09 09:31:00,
2013-03-09 01:36:00,48.6,41.3,29.71,WNW,293,0.0,1.3,76,0.00,,,0.00,WUHU216HW,2013-03-09 09:36:00,
2013-03-09 01:41:00,48.4,41.5,29.72,WNW,293,0.4,1.1,77,0.00,,,0.00,WUHU216HW,2013-03-09 09:41:00,
2013-03-09 01:46:00,48.1,41.1,29.71,NE,45,1.1,1.1,77,0.00,,,0.00,WUHU216HW,2013-03-09 09:46:00,
2013-03-09 01:51:00,47.9,41.3,29.71,NW,315,1.3,3.4,78,0.00,,,0.00,WUHU216HW,2013-03-09 09:51:00,
2013-03-09 01:56:00,48.1,42.1,29.71,East,90,4.7,5.8,80,0.00,,,0.00,WUHU216HW,2013-03-09 09:56:00,
2013-03-09 02:01:00,48.4,42.1,29.72,NW,315,0.7,5.8,79,0.00,,,0.00,WUHU216HW,2013-03-09 10:01:00,
2013-03-09 02:06:00,48.2,41.9,29.71,NE,45,1.6,4.7,79,0.00,,,0.00,WUHU216HW,2013-03-09 10:06:00,
2013-03-09 02:11:00,47.9,41.7,29.72,ESE,113,1.1,2.5,79,0.00,,,0.00,WUHU216HW,2013-03-09 10:11:00,
2013-03-09 02:16:00,47.9,41.7,29.72,SSE,158,0.2,2.5,79,0.00,,,0.00,WUHU216HW,2013-03-09 10:16:00,
2013-03-09 02:21:00,47.7,41.5,29.71,WSW,248,0.7,1.1,79,0.00,,,0.00,WUHU216HW,2013-03-09 10:21:00,
2013-03-09 02:26:00,48.1,41.8,29.71,NNW,338,2.5,3.6,79,0.00,,,0.00,WUHU216HW,2013-03-09 10:26:00,
2013-03-09 02:31:00,48.6,41.9,29.71,West,270,0.2,3.6,78,0.00,,,0.00,WUHU216HW,2013-03-09 10:31:00,
2013-03-09 02:36:00,48.6,41.9,29.71,WSW,248,1.8,2.5,78,0.00,,,0.00,WUHU216HW,2013-03-09 10:36:00,
2013-03-09 02:41:00,48.6,41.9,29.71,SW,225,2.0,2.0,78,0.00,,,0.00,WUHU216HW,2013-03-09 10:41:00,
2013-03-09 02:46:00,48.8,42.1,29.71,NW,315,0.7,2.2,78,0.00,,,0.00,WUHU216HW,2013-03-09 10:46:00,
2013-03-09 02:51:00,48.8,41.9,29.71,NNW,338,0.7,2.2,77,0.00,,,0.00,WUHU216HW,2013-03-09 10:51:00,
2013-03-09 02:56:00,48.8,41.9,29.71,ENE,68,0.7,2.5,77,0.00,,,0.00,WUHU216HW,2013-03-09 10:56:00,
2013-03-09 03:01:00,48.6,41.7,29.71,North,0,0.9,2.5,77,0.00,,,0.00,WUHU216HW,2013-03-09 11:01:00,
2013-03-09 03:06:00,48.2,41.6,29.71,NE,45,1.3,3.1,78,0.00,,,0.00,WUHU216HW,2013-03-09 11:06:00,
2013-03-09 03:11:00,47.9,41.3,29.72,NNE,23,1.8,3.4,78,0.00,,,0.00,WUHU216HW,2013-03-09 11:11:00,
2013-03-09 03:16:00,47.9,41.3,29.72,NE,45,1.1,3.4,78,0.00,,,0.00,WUHU216HW,2013-03-09 11:16:00,
2013-03-09 03:21:00,47.9,41.7,29.72,NNE,23,2.0,3.4,79,0.00,,,0.00,WUHU216HW,2013-03-09 11:21:00,
2013-03-09 03:26:00,48.1,41.5,29.72,SSW,203,0.2,4.5,78,0.00,,,0.00,WUHU216HW,2013-03-09 11:26:00,
2013-03-09 03:31:00,48.1,41.8,29.73,NW,315,1.8,4.5,79,0.00,,,0.00,WUHU216HW,2013-03-09 11:31:00,
2013-03-09 03:36:00,48.4,41.8,29.72,NW,315,3.8,4.5,78,0.00,,,0.00,WUHU216HW,2013-03-09 11:36:00,
2013-03-09 03:41:00,48.6,41.9,29.72,NW,315,2.7,4.5,78,0.00,,,0.00,WUHU216HW,2013-03-09 11:41:00,
2013-03-09 03:46:00,48.6,41.9,29.72,NNW,338,4.5,4.5,78,0.00,,,0.00,WUHU216HW,2013-03-09 11:46:00,
2013-03-09 03:51:00,48.4,41.8,29.71,North,0,0.4,4.7,78,0.00,,,0.00,WUHU216HW,2013-03-09 11:51:00,
2013-03-09 03:56:00,48.2,41.6,29.71,North,0,1.1,4.7,78,0.00,,,0.00,WUHU216HW,2013-03-09 11:56:00,
2013-03-09 04:01:00,48.1,41.5,29.71,NNW,338,1.3,2.9,78,0.00,,,0.00,WUHU216HW,2013-03-09 12:01:00,
2013-03-09 04:06:00,47.9,41.3,29.71,NNW,338,1.1,2.9,78,0.00,,,0.00,WUHU216HW,2013-03-09 12:06:00,
2013-03-09 04:11:00,47.7,41.1,29.71,NW,315,1.6,2.5,78,0.00,,,0.00,WUHU216HW,2013-03-09 12:11:00,
2013-03-09 04:16:00,47.5,41.0,29.71,NW,315,0.7,2.5,78,0.00,,,0.00,WUHU216HW,2013-03-09 12:16:00,
2013-03-09 04:21:00,47.3,40.8,29.71,NNW,338,0.9,1.6,78,0.00,,,0.00,WUHU216HW,2013-03-09 12:21:00,
2013-03-09 04:26:00,47.3,40.8,29.71,NNE,23,0.4,1.3,78,0.00,,,0.00,WUHU216HW,2013-03-09 12:26:00,
2013-03-09 04:31:00,47.2,40.7,29.72,NNW,338,0.2,1.3,78,0.00,,,0.00,WUHU216HW,2013-03-09 12:31:00,
2013-03-09 04:36:00,46.8,40.0,29.72,NNW,338,0.4,1.1,77,0.00,,,0.00,WUHU216HW,2013-03-09 12:36:00,
2013-03-09 04:41:00,46.4,39.7,29.72,NE,45,0.7,0.9,77,0.00,,,0.00,WUHU216HW,2013-03-09 12:41:00,
2013-03-09 04:46:00,46.1,39.3,29.72,NNE,23,0.7,1.6,77,0.00,,,0.00,WUHU216HW,2013-03-09 12:46:00,
2013-03-09 04:51:00,45.7,39.2,29.72,NNE,23,2.5,2.5,78,0.00,,,0.00,WUHU216HW,2013-03-09 12:51:00,
2013-03-09 04:56:00,45.5,39.1,29.72,North,0,1.8,2.7,78,0.00,,,0.00,WUHU216HW,2013-03-09 12:56:00,
2013-03-09 05:01:00,45.4,39.2,29.72,NE,45,1.8,2.7,79,0.00,,,0.00,WUHU216HW,2013-03-09 13:01:00,
2013-03-09 05:06:00,45.0,38.9,29.73,NNE,23,1.3,2.7,79,0.00,,,0.00,WUHU216HW,2013-03-09 13:06:00,
2013-03-09 05:11:00,44.8,39.1,29.73,ENE,68,1.3,2.7,80,0.00,,,0.00,WUHU216HW,2013-03-09 13:11:00,
2013-03-09 05:16:00,44.8,38.7,29.73,NW,315,0.0,2.5,79,0.00,,,0.00,WUHU216HW,2013-03-09 13:16:00,
2013-03-09 05:21:00,44.8,38.7,29.73,North,0,0.4,1.8,79,0.00,,,0.00,WUHU216HW,2013-03-09 13:21:00,
2013-03-09 05:26:00,44.6,38.5,29.73,SSW,203,0.0,1.8,79,0.00,,,0.00,WUHU216HW,2013-03-09 13:26:00,
2013-03-09 05:31:00,44.5,38.7,29.73,ENE,68,1.3,3.4,80,0.00,,,0.00,WUHU216HW,2013-03-09 13:31:00,
2013-03-09 05:36:00,44.3,38.5,29.73,ESE,113,1.1,3.4,80,0.00,,,0.00,WUHU216HW,2013-03-09 13:36:00,
2013-03-09 05:41:00,44.1,38.6,29.74,ENE,68,1.6,2.5,81,0.00,,,0.00,WUHU216HW,2013-03-09 13:41:00,
2013-03-09 05:46:00,43.7,38.6,29.74,ENE,68,2.9,2.9,82,0.00,,,0.00,WUHU216HW,2013-03-09 13:46:00,
2013-03-09 05:51:00,43.6,38.7,29.74,ENE,68,2.0,2.9,83,0.00,,,0.00,WUHU216HW,2013-03-09 13:51:00,
2013-03-09 05:56:00,43.4,38.5,29.74,NE,45,1.8,2.9,83,0.00,,,0.00,WUHU216HW,2013-03-09 13:56:00,
2013-03-09 06:01:00,43.6,38.4,29.74,ENE,68,1.3,2.7,82,0.00,,,0.00,WUHU216HW,2013-03-09 14:01:00,
2013-03-09 06:06:00,43.6,38.4,29.74,ENE,68,1.3,2.5,82,0.00,,,0.00,WUHU216HW,2013-03-09 14:06:00,
2013-03-09 06:11:00,43.4,38.3,29.75,ENE,68,0.7,2.5,82,0.00,,,0.00,WUHU216HW,2013-03-09 14:11:00,
2013-03-09 06:16:00,43.2,38.1,29.75,NE,45,1.6,1.8,82,0.00,,,0.00,WUHU216HW,2013-03-09 14:16:00,
2013-03-09 06:21:00,43.2,38.1,29.75,ENE,68,0.4,1.8,82,0.00,,,0.00,WUHU216HW,2013-03-09 14:21:00,
2013-03-09 06:26:00,43.2,38.1,29.76,North,0,0.7,1.8,82,0.00,,,0.00,WUHU216HW,2013-03-09 14:26:00,
2013-03-09 06:31:00,43.0,38.2,29.76,NE,45,2.0,2.5,83,0.00,,,0.00,WUHU216HW,2013-03-09 14:31:00,
2013-03-09 06:36:00,43.2,38.1,29.76,North,0,0.0,2.5,82,0.00,,,0.00,WUHU216HW,2013-03-09 14:36:00,
2013-03-09 06:41:00,43.4,38.3,29.76,NW,315,0.7,2.0,82,0.00,,,0.00,WUHU216HW,2013-03-09 14:41:00,
2013-03-09 06:46:00,43.6,38.4,29.76,North,0,1.6,2.2,82,0.00,,,0.00,WUHU216HW,2013-03-09 14:46:00,
2013-03-09 06:51:00,43.9,38.8,29.76,North,0,1.3,2.2,82,0.00,,,0.00,WUHU216HW,2013-03-09 14:51:00,
2013-03-09 06:56:00,44.3,39.2,29.76,NNW,338,0.0,2.2,82,0.00,,,0.00,WUHU216HW,2013-03-09 14:56:00,
2013-03-09 07:01:00,44.6,39.5,29.76,NNW,338,0.4,1.1,82,0.00,,,0.00,WUHU216HW,2013-03-09 15:01:00,
2013-03-09 07:06:00,45.0,39.5,29.77,NW,315,0.0,1.1,81,0.00,,,0.00,WUHU216HW,2013-03-09 15:06:00,
2013-03-09 07:11:00,45.5,40.1,29.77,ESE,113,3.1,3.1,81,0.00,,,0.00,WUHU216HW,2013-03-09 15:11:00,
2013-03-09 07:16:00,45.9,40.1,29.77,ENE,68,2.5,3.8,80,0.00,,,0.00,WUHU216HW,2013-03-09 15:16:00,
2013-03-09 07:21:00,46.4,40.3,29.78,ENE,68,0.7,3.8,79,0.00,,,0.00,WUHU216HW,2013-03-09 15:21:00,
2013-03-09 07:26:00,47.0,40.5,29.78,ENE,68,1.1,2.7,78,0.00,,,0.00,WUHU216HW,2013-03-09 15:26:00,
2013-03-09 07:31:00,47.7,41.1,29.78,East,90,2.7,2.7,78,0.00,,,0.00,WUHU216HW,2013-03-09 15:31:00,
2013-03-09 07:36:00,48.6,41.3,29.78,NE,45,3.6,3.8,76,0.00,,,0.00,WUHU216HW,2013-03-09 15:36:00,
2013-03-09 07:41:00,49.3,42.4,29.78,East,90,2.5,4.5,77,0.00,,,0.00,WUHU216HW,2013-03-09 15:41:00,
2013-03-09 07:46:00,50.0,43.1,29.78,East,90,4.7,5.8,77,0.00,,,0.00,WUHU216HW,2013-03-09 15:46:00,
2013-03-09 07:51:00,50.4,43.1,29.79,ENE,68,4.7,5.8,76,0.00,,,0.00,WUHU216HW,2013-03-09 15:51:00,
2013-03-09 07:56:00,50.8,43.5,29.79,East,90,2.5,6.5,76,0.00,,,0.00,WUHU216HW,2013-03-09 15:56:00,
2013-03-09 08:01:00,50.8,43.1,29.79,NE,45,2.2,6.5,75,0.00,,,0.00,WUHU216HW,2013-03-09 16:01:00,
2013-03-09 08:06:00,51.3,43.7,29.79,ESE,113,4.7,6.3,75,0.00,,,0.00,WUHU216HW,2013-03-09 16:06:00,
2013-03-09 08:11:00,51.7,43.3,29.79,ESE,113,1.6,6.3,73,0.00,,,0.00,WUHU216HW,2013-03-09 16:11:00,
2013-03-09 08:16:00,52.2,43.8,29.79,North,0,2.9,5.6,73,0.00,,,0.00,WUHU216HW,2013-03-09 16:16:00,
2013-03-09 08:21:00,52.9,44.2,29.79,ESE,113,1.1,4.3,72,0.00,,,0.00,WUHU216HW,2013-03-09 16:21:00,
2013-03-09 08:26:00,53.5,45.4,29.79,SW,225,1.1,2.7,74,0.00,,,0.00,WUHU216HW,2013-03-09 16:26:00,
2013-03-09 08:31:00,54.2,45.7,29.79,SSW,203,1.3,3.1,73,0.00,,,0.00,WUHU216HW,2013-03-09 16:31:00,
2013-03-09 08:36:00,54.7,46.3,29.79,East,90,4.0,4.9,73,0.00,,,0.00,WUHU216HW,2013-03-09 16:36:00,
2013-03-09 08:41:00,55.3,46.1,29.79,SW,225,3.1,4.9,71,0.00,,,0.00,WUHU216HW,2013-03-09 16:41:00,
2013-03-09 08:46:00,55.8,46.5,29.79,SW,225,4.0,4.0,71,0.00,,,0.00,WUHU216HW,2013-03-09 16:46:00,
2013-03-09 08:51:00,56.0,46.4,29.79,WSW,248,4.7,4.7,70,0.00,,,0.00,WUHU216HW,2013-03-09 16:51:00,
2013-03-09 08:56:00,56.2,46.5,29.79,WSW,248,4.7,6.3,70,0.00,,,0.00,WUHU216HW,2013-03-09 16:56:00,
2013-03-09 09:01:00,56.2,46.5,29.80,SW,225,1.8,6.3,70,0.00,,,0.00,WUHU216HW,2013-03-09 17:01:00,
2013-03-09 09:06:00,56.2,46.2,29.79,SW,225,2.2,5.1,69,0.00,,,0.00,WUHU216HW,2013-03-09 17:06:00,
2013-03-09 09:11:00,56.5,46.4,29.79,West,270,1.8,5.1,69,0.00,,,0.00,WUHU216HW,2013-03-09 17:11:00,
2013-03-09 09:16:00,56.2,46.2,29.79,SW,225,3.4,4.5,69,0.00,,,0.00,WUHU216HW,2013-03-09 17:16:00,
2013-03-09 09:21:00,56.0,45.5,29.79,WSW,248,3.4,3.6,68,0.00,,,0.00,WUHU216HW,2013-03-09 17:21:00,
2013-03-09 09:26:00,56.0,45.2,29.80,West,270,2.0,5.1,67,0.00,,,0.00,WUHU216HW,2013-03-09 17:26:00,
2013-03-09 09:31:00,56.0,45.2,29.80,WSW,248,5.6,5.6,67,0.00,,,0.00,WUHU216HW,2013-03-09 17:31:00,
2013-03-09 09:36:00,56.3,43.9,29.79,NW,315,1.8,5.6,63,0.00,,,0.00,WUHU216HW,2013-03-09 17:36:00,
2013-03-09 09:41:00,56.2,44.1,29.80,WSW,248,2.0,6.0,64,0.00,,,0.00,WUHU216HW,2013-03-09 17:41:00,
2013-03-09 09:46:00,56.5,44.5,29.80,WSW,248,2.2,6.0,64,0.00,,,0.00,WUHU216HW,2013-03-09 17:46:00,
2013-03-09 09:51:00,57.1,41.9,29.80,NNW,338,2.0,4.3,57,0.00,,,0.00,WUHU216HW,2013-03-09 17:51:00,
2013-03-09 09:56:00,56.5,41.4,29.80,SW,225,1.3,5.4,57,0.00,,,0.00,WUHU216HW,2013-03-09 17:56:00,
2013-03-09 10:01:00,56.7,40.7,29.80,North,0,0.7,5.4,55,0.00,,,0.00,WUHU216HW,2013-03-09 18:01:00,
2013-03-09 10:06:00,56.9,40.4,29.80,NNW,338,2.2,4.0,54,0.00,,,0.00,WUHU216HW,2013-03-09 18:06:00,
2013-03-09 10:11:00,56.9,40.9,29.80,WSW,248,1.1,4.0,55,0.00,,,0.00,WUHU216HW,2013-03-09 18:11:00,
2013-03-09 10:16:00,56.9,40.4,29.80,NW,315,2.2,4.7,54,0.00,,,0.00,WUHU216HW,2013-03-09 18:16:00,
2013-03-09 10:21:00,57.2,40.8,29.80,WSW,248,2.2,4.7,54,0.00,,,0.00,WUHU216HW,2013-03-09 18:21:00,
2013-03-09 10:26:00,57.2,42.1,29.80,WNW,293,2.5,4.3,57,0.00,,,0.00,WUHU216HW,2013-03-09 18:26:00,
2013-03-09 10:31:00,57.4,42.8,29.80,WSW,248,4.0,4.5,58,0.00,,,0.00,WUHU216HW,2013-03-09 18:31:00,
2013-03-09 10:36:00,57.4,42.8,29.80,WNW,293,2.2,5.4,58,0.00,,,0.00,WUHU216HW,2013-03-09 18:36:00,
2013-03-09 10:41:00,57.2,43.6,29.80,West,270,2.2,5.4,60,0.00,,,0.00,WUHU216HW,2013-03-09 18:41:00,
2013-03-09 10:46:00,57.2,44.4,29.80,WSW,248,6.5,6.5,62,0.00,,,0.00,WUHU216HW,2013-03-09 18:46:00,
2013-03-09 10:51:00,57.4,44.6,29.80,North,0,4.3,6.5,62,0.00,,,0.00,WUHU216HW,2013-03-09 18:51:00,
2013-03-09 10:56:00,57.6,44.3,29.79,West,270,4.7,6.7,61,0.00,,,0.00,WUHU216HW,2013-03-09 18:56:00,
2013-03-09 11:01:00,57.8,43.1,29.80,West,270,4.0,6.7,58,0.00,,,0.00,WUHU216HW,2013-03-09 19:01:00,
2013-03-09 11:06:00,58.0,43.3,29.80,NW,315,1.8,6.3,58,0.00,,,0.00,WUHU216HW,2013-03-09 19:06:00,
2013-03-09 11:11:00,58.3,43.6,29.80,WNW,293,2.5,5.6,58,0.00,,,0.00,WUHU216HW,2013-03-09 19:11:00,
2013-03-09 11:16:00,58.9,42.7,29.80,WSW,248,3.4,5.4,55,0.00,,,0.00,WUHU216HW,2013-03-09 19:16:00,
2013-03-09 11:21:00,58.3,42.2,29.80,West,270,5.1,6.9,55,0.00,,,0.00,WUHU216HW,2013-03-09 19:21:00,
2013-03-09 11:26:00,58.5,43.3,29.80,WSW,248,3.6,6.9,57,0.00,,,0.00,WUHU216HW,2013-03-09 19:26:00,
2013-03-09 11:31:00,58.9,44.1,29.80,WSW,248,5.4,5.6,58,0.00,,,0.00,WUHU216HW,2013-03-09 19:31:00,
2013-03-09 11:36:00,58.5,43.7,29.81,WNW,293,2.7,8.5,58,0.00,,,0.00,WUHU216HW,2013-03-09 19:36:00,
2013-03-09 11:41:00,58.1,44.4,29.81,WSW,248,3.4,8.5,60,0.00,,,0.00,WUHU216HW,2013-03-09 19:41:00,
2013-03-09 11:46:00,58.3,44.9,29.81,NNW,338,1.6,6.9,61,0.00,,,0.00,WUHU216HW,2013-03-09 19:46:00,
2013-03-09 11:51:00,58.3,45.4,29.80,WSW,248,5.6,8.1,62,0.00,,,0.00,WUHU216HW,2013-03-09 19:51:00,
2013-03-09 11:56:00,58.1,43.9,29.80,NW,315,4.0,8.1,59,0.00,,,0.00,WUHU216HW,2013-03-09 19:56:00,
2013-03-09 12:01:00,58.5,43.7,29.80,NNW,338,3.4,7.2,58,0.00,,,0.00,WUHU216HW,2013-03-09 20:01:00,
2013-03-09 12:06:00,59.0,44.3,29.80,NNW,338,2.5,6.7,58,0.00,,,0.00,WUHU216HW,2013-03-09 20:06:00,
2013-03-09 12:11:00,59.6,43.8,29.80,SW,225,5.8,6.7,56,0.00,,,0.00,WUHU216HW,2013-03-09 20:11:00,
2013-03-09 12:16:00,59.2,43.0,29.80,NW,315,4.7,6.9,55,0.00,,,0.00,WUHU216HW,2013-03-09 20:16:00,
2013-03-09 12:21:00,59.0,43.3,29.80,North,0,6.3,6.9,56,0.00,,,0.00,WUHU216HW,2013-03-09 20:21:00,
2013-03-09 12:26:00,59.2,43.9,29.80,NW,315,8.5,8.5,57,0.00,,,0.00,WUHU216HW,2013-03-09 20:26:00,
2013-03-09 12:31:00,59.6,43.4,29.79,SSE,158,2.5,8.5,55,0.00,,,0.00,WUHU216HW,2013-03-09 20:31:00,
2013-03-09 12:36:00,59.9,43.2,29.79,NNE,23,4.3,8.5,54,0.00,,,0.00,WUHU216HW,2013-03-09 20:36:00,
2013-03-09 12:41:00,60.1,43.4,29.79,SW,225,6.3,6.3,54,0.00,,,0.00,WUHU216HW,2013-03-09 20:41:00,
2013-03-09 12:46:00,60.1,42.9,29.79,NW,315,2.5,7.2,53,0.00,,,0.00,WUHU216HW,2013-03-09 20:46:00,
2013-03-09 12:51:00,60.3,43.6,29.79,NW,315,4.0,8.1,54,0.00,,,0.00,WUHU216HW,2013-03-09 20:51:00,
2013-03-09 12:56:00,60.3,43.1,29.79,SW,225,4.7,8.1,53,0.00,,,0.00,WUHU216HW,2013-03-09 20:56:00,
2013-03-09 13:01:00,60.5,42.8,29.79,WNW,293,3.4,7.8,52,0.00,,,0.00,WUHU216HW,2013-03-09 21:01:00,
2013-03-09 13:06:00,60.5,43.2,29.78,SE,135,3.4,7.2,53,0.00,,,0.00,WUHU216HW,2013-03-09 21:06:00,
2013-03-09 13:11:00,60.5,44.7,29.78,WNW,293,4.3,6.3,56,0.00,,,0.00,WUHU216HW,2013-03-09 21:11:00,
2013-03-09 13:16:00,60.5,44.2,29.78,SW,225,5.1,8.1,55,0.00,,,0.00,WUHU216HW,2013-03-09 21:16:00,
2013-03-09 13:21:00,60.3,45.5,29.78,NW,315,8.7,8.7,58,0.00,,,0.00,WUHU216HW,2013-03-09 21:21:00,
2013-03-09 13:26:00,60.3,45.0,29.78,WNW,293,5.6,8.7,57,0.00,,,0.00,WUHU216HW,2013-03-09 21:26:00,
2013-03-09 13:31:00,60.7,46.4,29.78,WSW,248,1.8,8.7,59,0.00,,,0.00,WUHU216HW,2013-03-09 21:31:00,
2013-03-09 13:36:00,61.0,46.6,29.78,WSW,248,3.4,6.9,59,0.00,,,0.00,WUHU216HW,2013-03-09 21:36:00,
2013-03-09 13:41:00,61.2,46.8,29.77,SW,225,2.5,6.9,59,0.00,,,0.00,WUHU216HW,2013-03-09 21:41:00,
2013-03-09 13:46:00,61.0,47.2,29.77,SW,225,2.9,5.6,60,0.00,,,0.00,WUHU216HW,2013-03-09 21:46:00,
2013-03-09 13:51:00,61.2,47.4,29.78,West,270,4.7,5.6,60,0.00,,,0.00,WUHU216HW,2013-03-09 21:51:00,
2013-03-09 13:56:00,61.6,47.2,29.77,WNW,293,4.0,4.9,59,0.00,,,0.00,WUHU216HW,2013-03-09 21:56:00,
2013-03-09 14:01:00,61.6,47.2,29.77,West,270,2.0,5.6,59,0.00,,,0.00,WUHU216HW,2013-03-09 22:01:00,
2013-03-09 14:06:00,62.1,47.2,29.77,NW,315,4.9,5.8,58,0.00,,,0.00,WUHU216HW,2013-03-09 22:06:00,
2013-03-09 14:11:00,62.3,47.8,29.77,WSW,248,1.8,5.8,59,0.00,,,0.00,WUHU216HW,2013-03-09 22:11:00,
2013-03-09 14:16:00,62.1,48.2,29.77,SSE,158,6.3,6.3,60,0.00,,,0.00,WUHU216HW,2013-03-09 22:16:00,
2013-03-09 14:21:00,62.3,47.8,29.77,NW,315,3.1,6.3,59,0.00,,,0.00,WUHU216HW,2013-03-09 22:21:00,
2013-03-09 14:26:00,62.6,48.6,29.77,NNW,338,2.2,5.6,60,0.00,,,0.00,WUHU216HW,2013-03-09 22:26:00,
2013-03-09 14:31:00,62.6,48.6,29.77,North,0,1.8,5.4,60,0.00,,,0.00,WUHU216HW,2013-03-09 22:31:00,
2013-03-09 14:36:00,62.6,49.1,29.77,WSW,248,1.8,5.8,61,0.00,,,0.00,WUHU216HW,2013-03-09 22:36:00,
2013-03-09 14:41:00,62.5,49.2,29.77,WSW,248,4.7,5.8,62,0.00,,,0.00,WUHU216HW,2013-03-09 22:41:00,
2013-03-09 14:46:00,61.9,48.8,29.77,WSW,248,4.3,6.7,62,0.00,,,0.00,WUHU216HW,2013-03-09 22:46:00,
2013-03-09 14:51:00,61.4,49.2,29.77,SW,225,2.7,6.7,64,0.00,,,0.00,WUHU216HW,2013-03-09 22:51:00,
2013-03-09 14:56:00,61.6,49.3,29.76,WSW,248,4.0,5.4,64,0.00,,,0.00,WUHU216HW,2013-03-09 22:56:00,
2013-03-09 15:01:00,61.9,48.8,29.76,WSW,248,4.0,6.0,62,0.00,,,0.00,WUHU216HW,2013-03-09 23:01:00,
2013-03-09 15:06:00,61.7,48.6,29.77,West,270,4.5,6.0,62,0.00,,,0.00,WUHU216HW,2013-03-09 23:06:00,
2013-03-09 15:11:00,61.7,49.1,29.77,SW,225,1.8,6.0,63,0.00,,,0.00,WUHU216HW,2013-03-09 23:11:00,
2013-03-09 15:16:00,62.1,48.2,29.76,NW,315,4.3,6.0,60,0.00,,,0.00,WUHU216HW,2013-03-09 23:16:00,
2013-03-09 15:21:00,62.6,47.6,29.76,SSW,203,3.1,5.4,58,0.00,,,0.00,WUHU216HW,2013-03-09 23:21:00,
2013-03-09 15:26:00,63.0,47.4,29.76,NE,45,2.5,5.4,57,0.00,,,0.00,WUHU216HW,2013-03-09 23:26:00,
2013-03-09 15:31:00,63.0,48.0,29.76,West,270,1.1,6.0,58,0.00,,,0.00,WUHU216HW,2013-03-09 23:31:00,
2013-03-09 15:36:00,63.2,48.2,29.76,SSW,203,2.9,6.0,58,0.00,,,0.00,WUHU216HW,2013-03-09 23:36:00,
2013-03-09 15:41:00,63.2,49.1,29.76,ENE,68,0.7,3.8,60,0.00,,,0.00,WUHU216HW,2013-03-09 23:41:00,
2013-03-09 15:46:00,62.5,48.9,29.76,WSW,248,4.3,5.4,61,0.00,,,0.00,WUHU216HW,2013-03-09 23:46:00,
2013-03-09 15:51:00,63.0,49.3,29.76,West,270,1.3,5.4,61,0.00,,,0.00,WUHU216HW,2013-03-09 23:51:00,
2013-03-09 15:56:00,63.5,49.9,29.76,WSW,248,4.9,4.9,61,0.00,,,0.00,WUHU216HW,2013-03-09 23:56:00,
2013-03-09 16:01:00,63.5,49.9,29.76,West,270,1.1,4.9,61,0.00,,,0.00,WUHU216HW,2013-03-10 00:01:00,
2013-03-09 16:06:00,63.7,49.1,29.76,WSW,248,3.6,4.9,59,0.00,,,0.00,WUHU216HW,2013-03-10 00:06:00,
2013-03-09 16:11:00,63.2,50.0,29.76,West,270,4.0,5.4,62,0.00,,,0.00,WUHU216HW,2013-03-10 00:11:00,
2013-03-09 16:16:00,62.5,50.5,29.76,WSW,248,3.1,5.4,65,0.00,,,0.00,WUHU216HW,2013-03-10 00:16:00,
2013-03-09 16:21:00,61.6,50.5,29.76,WSW,248,1.8,5.1,67,0.00,,,0.00,WUHU216HW,2013-03-10 00:21:00,
2013-03-09 16:26:00,61.6,50.1,29.76,WNW,293,2.5,4.3,66,0.00,,,0.00,WUHU216HW,2013-03-10 00:26:00,
2013-03-09 16:31:00,61.4,50.4,29.76,NW,315,2.5,3.4,67,0.00,,,0.00,WUHU216HW,2013-03-10 00:31:00,
2013-03-09 16:36:00,61.6,50.5,29.76,SW,225,1.1,3.1,67,0.00,,,0.00,WUHU216HW,2013-03-10 00:36:00,
2013-03-09 16:41:00,61.9,50.1,29.76,WSW,248,3.4,3.6,65,0.00,,,0.00,WUHU216HW,2013-03-10 00:41:00,
2013-03-09 16:46:00,62.3,50.8,29.76,SW,225,3.4,5.4,66,0.00,,,0.00,WUHU216HW,2013-03-10 00:46:00,
2013-03-09 16:51:00,62.3,50.3,29.76,WNW,293,0.9,5.4,65,0.00,,,0.00,WUHU216HW,2013-03-10 00:51:00,
2013-03-09 16:56:00,62.3,50.0,29.76,WNW,293,0.2,4.5,64,0.00,,,0.00,WUHU216HW,2013-03-10 00:56:00,
2013-03-09 17:01:00,63.0,49.8,29.77,NNW,338,1.1,2.9,62,0.00,,,0.00,WUHU216HW,2013-03-10 01:01:00,
2013-03-09 17:06:00,64.1,48.0,29.76,West,270,1.3,2.0,56,0.00,,,0.00,WUHU216HW,2013-03-10 01:06:00,
2013-03-09 17:11:00,65.3,47.3,29.77,WSW,248,1.3,5.4,52,0.00,,,0.00,WUHU216HW,2013-03-10 01:11:00,
2013-03-09 17:16:00,66.2,41.2,29.77,NNW,338,0.9,5.4,40,0.00,,,0.00,WUHU216HW,2013-03-10 01:16:00,
2013-03-09 17:21:00,66.1,42.9,29.78,NNW,338,1.8,4.7,43,0.00,,,0.00,WUHU216HW,2013-03-10 01:21:00,
2013-03-09 17:26:00,65.5,42.9,29.78,NNE,23,3.1,8.5,44,0.00,,,0.00,WUHU216HW,2013-03-10 01:26:00,
2013-03-09 17:31:00,65.0,41.2,29.78,North,0,6.0,8.5,42,0.00,,,0.00,WUHU216HW,2013-03-10 01:31:00,
2013-03-09 17:36:00,64.4,41.3,29.78,NNE,23,4.5,9.2,43,0.00,,,0.00,WUHU216HW,2013-03-10 01:36:00,
2013-03-09 17:41:00,63.9,39.7,29.78,NNE,23,4.0,9.2,41,0.00,,,0.00,WUHU216HW,2013-03-10 01:41:00,
2013-03-09 17:46:00,63.5,39.3,29.77,North,0,4.7,7.6,41,0.00,,,0.00,WUHU216HW,2013-03-10 01:46:00,
2013-03-09 17:51:00,63.0,38.4,29.78,North,0,8.3,8.3,40,0.00,,,0.00,WUHU216HW,2013-03-10 01:51:00,
2013-03-09 17:56:00,62.6,37.3,29.78,North,0,7.6,11.0,39,0.00,,,0.00,WUHU216HW,2013-03-10 01:56:00,
2013-03-09 18:01:00,62.5,37.8,29.78,North,0,3.8,11.0,40,0.00,,,0.00,WUHU216HW,2013-03-10 02:01:00,
2013-03-09 18:06:00,62.1,38.1,29.79,NW,315,3.1,10.3,41,0.00,,,0.00,WUHU216HW,2013-03-10 02:06:00,
2013-03-09 18:11:00,61.7,37.2,29.79,North,0,2.5,10.3,40,0.00,,,0.00,WUHU216HW,2013-03-10 02:11:00,
2013-03-09 18:16:00,61.4,38.6,29.79,WNW,293,3.4,5.4,43,0.00,,,0.00,WUHU216HW,2013-03-10 02:16:00,
2013-03-09 18:21:00,61.2,37.8,29.79,West,270,1.8,4.0,42,0.00,,,0.00,WUHU216HW,2013-03-10 02:21:00,
2013-03-09 18:26:00,60.8,38.1,29.79,East,90,0.2,4.0,43,0.00,,,0.00,WUHU216HW,2013-03-10 02:26:00,
2013-03-09 18:31:00,60.5,38.3,29.79,WSW,248,0.0,2.2,44,0.00,,,0.00,WUHU216HW,2013-03-10 02:31:00,
2013-03-09 18:36:00,60.1,36.9,29.80,WSW,248,1.1,2.9,42,0.00,,,0.00,WUHU216HW,2013-03-10 02:36:00,
2013-03-09 18:41:00,60.1,36.3,29.80,WNW,293,3.6,3.6,41,0.00,,,0.00,WUHU216HW,2013-03-10 02:41:00,
2013-03-09 18:46:00,60.1,36.9,29.80,NW,315,0.9,3.6,42,0.00,,,0.00,WUHU216HW,2013-03-10 02:46:00,
2013-03-09 18:51:00,60.1,35.7,29.80,East,90,3.1,3.8,40,0.00,,,0.00,WUHU216HW,2013-03-10 02:51:00,
2013-03-09 18:56:00,59.8,38.3,29.80,SSE,158,2.2,5.4,45,0.00,,,0.00,WUHU216HW,2013-03-10 02:56:00,
2013-03-09 19:01:00,59.4,42.8,29.81,ESE,113,2.2,5.4,54,0.00,,,0.00,WUHU216HW,2013-03-10 03:01:00,
2013-03-09 19:06:00,58.9,46.3,29.81,ESE,113,5.8,5.8,63,0.00,,,0.00,WUHU216HW,2013-03-10 03:06:00,
2013-03-09 19:11:00,58.3,45.4,29.81,NE,45,0.4,5.8,62,0.00,,,0.00,WUHU216HW,2013-03-10 03:11:00,
2013-03-09 19:16:00,58.0,47.1,29.82,East,90,1.6,5.8,67,0.00,,,0.00,WUHU216HW,2013-03-10 03:16:00,
2013-03-09 19:21:00,57.6,48.2,29.82,SE,135,3.6,4.5,71,0.00,,,0.00,WUHU216HW,2013-03-10 03:21:00,
2013-03-09 19:26:00,57.2,48.6,29.82,ESE,113,1.8,4.7,73,0.00,,,0.00,WUHU216HW,2013-03-10 03:26:00,
2013-03-09 19:31:00,56.9,48.2,29.82,SE,135,3.6,4.7,73,0.00,,,0.00,WUHU216HW,2013-03-10 03:31:00,
2013-03-09 19:36:00,56.5,48.0,29.82,ESE,113,2.5,5.6,73,0.00,,,0.00,WUHU216HW,2013-03-10 03:36:00,
2013-03-09 19:41:00,56.3,48.5,29.82,East,90,1.8,5.6,75,0.00,,,0.00,WUHU216HW,2013-03-10 03:41:00,
2013-03-09 19:46:00,56.0,48.5,29.82,East,90,2.5,3.4,76,0.00,,,0.00,WUHU216HW,2013-03-10 03:46:00,
2013-03-09 19:51:00,55.8,48.3,29.82,ENE,68,2.5,4.0,76,0.00,,,0.00,WUHU216HW,2013-03-10 03:51:00,
2013-03-09 19:56:00,55.6,48.2,29.82,East,90,3.4,4.0,76,0.00,,,0.00,WUHU216HW,2013-03-10 03:56:00,
2013-03-09 20:01:00,55.4,48.3,29.82,ENE,68,2.7,5.4,77,0.00,,,0.00,WUHU216HW,2013-03-10 04:01:00,
2013-03-09 20:06:00,55.4,48.3,29.82,ESE,113,4.5,5.8,77,0.00,,,0.00,WUHU216HW,2013-03-10 04:06:00,
2013-03-09 20:11:00,55.4,48.3,29.83,East,90,2.5,5.8,77,0.00,,,0.00,WUHU216HW,2013-03-10 04:11:00,
2013-03-09 20:16:00,55.4,48.0,29.83,ENE,68,3.6,4.5,76,0.00,,,0.00,WUHU216HW,2013-03-10 04:16:00,
2013-03-09 20:21:00,55.4,48.0,29.83,NNE,23,1.8,6.7,76,0.00,,,0.00,WUHU216HW,2013-03-10 04:21:00,
2013-03-09 20:26:00,55.3,47.4,29.83,NE,45,3.4,6.7,75,0.00,,,0.00,WUHU216HW,2013-03-10 04:26:00,
2013-03-09 20:31:00,55.4,46.9,29.83,ENE,68,2.0,4.5,73,0.00,,,0.00,WUHU216HW,2013-03-10 04:31:00,
2013-03-09 20:36:00,55.4,46.9,29.83,ENE,68,3.4,4.5,73,0.00,,,0.00,WUHU216HW,2013-03-10 04:36:00,
2013-03-09 20:41:00,55.3,46.1,29.83,NE,45,2.7,3.4,71,0.00,,,0.00,WUHU216HW,2013-03-10 04:41:00,
2013-03-09 20:46:00,55.1,45.1,29.83,NE,45,2.2,4.7,69,0.00,,,0.00,WUHU216HW,2013-03-10 04:46:00,
2013-03-09 20:51:00,54.9,44.6,29.83,ENE,68,2.9,4.7,68,0.00,,,0.00,WUHU216HW,2013-03-10 04:51:00,
2013-03-09 20:56:00,54.7,43.9,29.84,NNE,23,3.1,4.3,67,0.00,,,0.00,WUHU216HW,2013-03-10 04:56:00,
2013-03-09 21:00:00,54.5,42.6,29.84,ENE,68,2.0,3.8,64,0.00,,,0.00,WUHU216HW,2013-03-10 05:00:00,
2013-03-09 21:01:00,54.5,41.8,29.84,East,90,2.7,3.8,62,0.00,,,0.00,WUHU216HW,2013-03-10 05:01:00,
2013-03-09 21:06:00,54.7,41.5,29.84,ENE,68,1.6,3.4,61,0.00,,,0.00,WUHU216HW,2013-03-10 05:06:00,
2013-03-09 21:11:00,54.9,42.1,29.84,NW,315,1.8,3.4,62,0.00,,,0.00,WUHU216HW,2013-03-10 05:11:00,
2013-03-09 21:16:00,54.7,42.3,29.84,NNW,338,0.9,2.5,63,0.00,,,0.00,WUHU216HW,2013-03-10 05:16:00,
2013-03-09 21:21:00,54.4,42.0,29.85,NNW,338,0.0,2.5,63,0.00,,,0.00,WUHU216HW,2013-03-10 05:21:00,
2013-03-09 21:26:00,54.0,40.9,29.85,ENE,68,0.9,0.9,61,0.00,,,0.00,WUHU216HW,2013-03-10 05:26:00,
2013-03-09 21:31:00,53.8,40.3,29.85,NE,45,0.7,1.3,60,0.00,,,0.00,WUHU216HW,2013-03-10 05:31:00,
2013-03-09 21:36:00,53.6,39.7,29.85,ENE,68,2.0,2.2,59,0.00,,,0.00,WUHU216HW,2013-03-10 05:36:00,
2013-03-09 21:41:00,53.6,39.7,29.85,ENE,68,1.1,2.2,59,0.00,,,0.00,WUHU216HW,2013-03-10 05:41:00,
2013-03-09 21:46:00,53.5,39.1,29.85,ENE,68,2.5,2.5,58,0.00,,,0.00,WUHU216HW,2013-03-10 05:46:00,
2013-03-09 21:51:00,53.8,38.4,29.85,NE,45,2.7,2.7,56,0.00,,,0.00,WUHU216HW,2013-03-10 05:51:00,
2013-03-09 21:56:00,54.0,38.2,29.85,ENE,68,1.3,2.7,55,0.00,,,0.00,WUHU216HW,2013-03-10 05:56:00,
2013-03-09 22:01:00,54.0,37.6,29.86,ENE,68,2.2,3.1,54,0.00,,,0.00,WUHU216HW,2013-03-10 06:01:00,
2013-03-09 22:06:00,54.0,38.2,29.85,East,90,1.8,3.1,55,0.00,,,0.00,WUHU216HW,2013-03-10 06:06:00,
2013-03-09 22:11:00,53.8,38.4,29.86,ENE,68,0.4,2.2,56,0.00,,,0.00,WUHU216HW,2013-03-10 06:11:00,
2013-03-09 22:16:00,53.5,38.5,29.86,West,270,0.4,1.8,57,0.00,,,0.00,WUHU216HW,2013-03-10 06:16:00,
2013-03-09 22:21:00,53.1,38.7,29.86,West,270,0.0,1.1,58,0.00,,,0.00,WUHU216HW,2013-03-10 06:21:00,
2013-03-09 22:26:00,52.9,39.0,29.87,SSE,158,0.2,0.4,59,0.00,,,0.00,WUHU216HW,2013-03-10 06:26:00,
2013-03-09 22:31:00,52.6,39.1,29.86,WSW,248,0.4,1.6,60,0.00,,,0.00,WUHU216HW,2013-03-10 06:31:00,
2013-03-09 22:36:00,52.0,39.0,29.87,North,0,1.1,1.6,61,0.00,,,0.00,WUHU216HW,2013-03-10 06:36:00,
2013-03-09 22:41:00,51.7,39.9,29.86,NE,45,1.1,1.1,64,0.00,,,0.00,WUHU216HW,2013-03-10 06:41:00,
2013-03-09 22:46:00,51.3,39.5,29.86,ENE,68,1.1,1.8,64,0.00,,,0.00,WUHU216HW,2013-03-10 06:46:00,
2013-03-09 22:51:00,51.3,39.1,29.86,ENE,68,0.4,2.2,63,0.00,,,0.00,WUHU216HW,2013-03-10 06:51:00,
2013-03-09 22:56:00,50.9,38.7,29.86,ENE,68,1.6,2.2,63,0.00,,,0.00,WUHU216HW,2013-03-10 06:56:00,
2013-03-09 23:01:00,51.1,38.9,29.87,North,0,0.9,1.8,63,0.00,,,0.00,WUHU216HW,2013-03-10 07:01:00,
2013-03-09 23:06:00,50.9,38.7,29.87,North,0,0.0,1.6,63,0.00,,,0.00,WUHU216HW,2013-03-10 07:06:00,
2013-03-09 23:11:00,50.8,39.0,29.87,North,0,0.0,1.3,64,0.00,,,0.00,WUHU216HW,2013-03-10 07:11:00,
2013-03-09 23:16:00,50.4,38.6,29.87,NNW,338,0.4,1.1,64,0.00,,,0.00,WUHU216HW,2013-03-10 07:16:00,
2013-03-09 23:21:00,50.2,38.4,29.87,NW,315,0.4,1.1,64,0.00,,,0.00,WUHU216HW,2013-03-10 07:21:00,
2013-03-09 23:26:00,49.9,38.2,29.87,NW,315,0.0,0.9,64,0.00,,,0.00,WUHU216HW,2013-03-10 07:26:00,
2013-03-09 23:31:00,49.5,38.6,29.87,East,90,0.9,1.3,66,0.00,,,0.00,WUHU216HW,2013-03-10 07:31:00,
2013-03-09 23:36:00,49.1,38.6,29.87,NE,45,1.1,1.6,67,0.00,,,0.00,WUHU216HW,2013-03-10 07:36:00,
2013-03-09 23:41:00,49.1,38.3,29.87,ENE,68,1.1,1.6,66,0.00,,,0.00,WUHU216HW,2013-03-10 07:41:00,
2013-03-09 23:46:00,49.1,38.3,29.87,NE,45,1.1,2.5,66,0.00,,,0.00,WUHU216HW,2013-03-10 07:46:00,
2013-03-09 23:51:00,49.1,37.8,29.87,NE,45,1.1,2.5,65,0.00,,,0.00,WUHU216HW,2013-03-10 07:51:00,
2013-03-09 23:56:00,49.1,37.8,29.87,NNE,23,1.8,2.5,65,0.00,,,0.00,WUHU216HW,2013-03-10 07:56:00,